Time;durP1;ratioP1;P1;durP2;ratioP2;P2;SDS_P1;SDS_P2;PMS_P1;PMS_P2;Temp;Humidity;BMP_temperature;BMP_pressure;BME280_temperature;BME280_humidity;BME280_pressure;Samples;Min_cycle;Max_cycle;Signal;HPM_P1;HPM_P2
2022/10/05 00:00:20;;;;;;;5.15;3.27;;;;;;;11.33;84.77;99615.59;1721794;83;21032;-68
2022/10/05 00:02:48;;;;;;;5.47;3.67;;;;;;;11.36;84.69;99616.59;1721752;83;21002;-67
2022/10/05 00:05:28;;;;;;;3.95;2.95;;;;;;;11.38;84.65;99618.08;1721728;81;20950;-70
2022/10/05 00:07:58;;;;;;;2.90;2.60;;;;;;;11.42;84.62;99618.05;1720674;82;21175;-71
2022/10/05 00:10:24;;;;;;;4.05;2.67;;;;;;;11.46;84.54;99613.22;1721518;83;21587;-70
2022/10/05 00:12:51;;;;;;;4.15;2.85;;;;;;;11.47;84.46;99607.70;1721727;81;20986;-70
2022/10/05 00:15:19;;;;;;;4.25;3.15;;;;;;;11.52;84.39;99605.34;1721678;81;21374;-68
2022/10/05 00:17:47;;;;;;;3.47;2.98;;;;;;;11.55;84.29;99605.53;1721662;81;21078;-71
2022/10/05 00:20:21;;;;;;;4.45;3.17;;;;;;;11.59;84.24;99601.50;1721850;81;21219;-70
2022/10/05 00:22:48;;;;;;;5.30;3.22;;;;;;;11.63;84.16;99608.13;1702647;83;21002;-71
2022/10/05 00:25:18;;;;;;;4.22;2.87;;;;;;;11.64;84.08;99601.31;1721891;83;20903;-71
2022/10/05 00:27:49;;;;;;;3.50;3.10;;;;;;;11.68;84.03;99613.77;1721732;82;20924;-71
2022/10/05 00:30:19;;;;;;;4.05;3.52;;;;;;;11.70;83.99;99613.16;1721842;83;20946;-69
2022/10/05 00:32:46;;;;;;;3.20;2.90;;;;;;;11.73;83.89;99615.47;1721570;81;21214;-70
2022/10/05 00:35:14;;;;;;;3.87;3.08;;;;;;;11.74;83.80;99610.45;1721693;83;21040;-71
2022/10/05 00:37:42;;;;;;;3.92;3.25;;;;;;;11.77;83.72;99614.11;1721844;81;20935;-71
2022/10/05 00:40:33;;;;;;;11.70;2.90;;;;;;;11.80;83.65;99607.59;1721783;81;20918;-71
2022/10/05 00:43:22;;;;;;;3.55;3.10;;;;;;;11.80;83.55;99605.77;1721808;81;20938;-70
2022/10/05 00:46:01;;;;;;;5.40;3.10;;;;;;;11.81;83.49;99599.41;1725646;83;21122;-68
2022/10/05 00:48:42;;;;;;;3.17;2.52;;;;;;;11.82;83.43;99606.91;1721752;81;21075;-69
2022/10/05 00:51:29;;;;;;;5.53;2.83;;;;;;;11.82;83.40;99610.91;1716320;81;21014;-70
2022/10/05 00:54:17;;;;;;;5.12;2.87;;;;;;;11.85;83.33;99624.73;1696259;83;21013;-70
2022/10/05 00:57:07;;;;;;;3.15;2.67;;;;;;;11.86;83.21;99634.40;1714499;81;20895;-69
2022/10/05 00:59:54;;;;;;;6.28;3.10;;;;;;;11.86;83.12;99630.40;1720333;81;21905;-68
2022/10/05 01:03:04;;;;;;;5.60;3.05;;;;;;;11.84;83.02;99626.22;1722382;80;21347;-71
2022/10/05 01:05:48;;;;;;;3.67;2.75;;;;;;;11.76;82.87;99631.92;1729846;81;21023;-69
2022/10/05 01:08:41;;;;;;;3.10;2.50;;;;;;;11.65;82.86;99637.59;1721688;81;20990;-68
2022/10/05 01:11:19;;;;;;;5.00;3.33;;;;;;;11.56;82.79;99644.48;1721997;81;21539;-70
2022/10/05 01:14:18;;;;;;;4.62;2.72;;;;;;;11.42;82.79;99643.87;1721835;82;21995;-71
2022/10/05 01:16:59;;;;;;;4.17;2.65;;;;;;;11.30;82.87;99646.06;1721505;82;21042;-68
2022/10/05 01:19:40;;;;;;;4.22;2.52;;;;;;;11.18;82.96;99651.92;1721877;83;21045;-69
2022/10/05 01:22:46;;;;;;;3.40;2.77;;;;;;;11.08;83.12;99652.93;1721966;81;20981;-69
2022/10/05 01:25:26;;;;;;;5.00;3.30;;;;;;;11.00;83.25;99659.59;1722128;82;20934;-69
2022/10/05 01:28:09;;;;;;;3.25;2.95;;;;;;;10.90;83.33;99658.95;1721873;83;21160;-68
2022/10/05 01:30:49;;;;;;;3.50;2.95;;;;;;;10.82;83.51;99662.13;1721982;81;21495;-70
2022/10/05 01:33:30;;;;;;;9.13;4.15;;;;;;;10.76;83.69;99661.46;1721578;81;20998;-71
2022/10/05 01:36:23;;;;;;;3.45;2.65;;;;;;;10.68;83.84;99662.30;1721539;83;20911;-69
2022/10/05 01:38:58;;;;;;;4.30;2.58;;;;;;;10.62;84.00;99662.11;1721953;81;20895;-71
2022/10/05 01:41:39;;;;;;;4.05;2.45;;;;;;;10.55;84.13;99669.95;1721633;81;21201;-69
2022/10/05 01:44:16;;;;;;;3.35;2.50;;;;;;;10.51;84.31;99670.76;1712329;81;21077;-68
2022/10/05 01:47:02;;;;;;;4.47;3.35;;;;;;;10.46;84.42;99670.42;1726132;81;20855;-72
2022/10/05 01:49:48;;;;;;;5.25;3.20;;;;;;;10.41;84.56;99677.23;1722083;82;20990;-69
2022/10/05 01:52:26;;;;;;;4.53;3.15;;;;;;;10.38;84.70;99682.88;1721766;81;21633;-70
2022/10/05 01:55:16;;;;;;;6.47;2.90;;;;;;;10.34;84.78;99682.88;1707723;81;22163;-68
2022/10/05 01:57:51;;;;;;;3.50;3.20;;;;;;;10.30;84.87;99689.50;1722031;81;21449;-70
2022/10/05 02:00:19;;;;;;;5.67;2.75;;;;;;;10.26;84.94;99684.19;1721443;81;21508;-70
2022/10/05 02:02:53;;;;;;;3.52;2.77;;;;;;;10.23;85.07;99686.68;1706211;83;20950;-69
2022/10/05 02:05:27;;;;;;;4.08;2.70;;;;;;;10.20;85.16;99692.32;1721745;81;25946;-68
2022/10/05 02:08:00;;;;;;;3.08;2.37;;;;;;;10.18;85.22;99692.15;1721952;83;21940;-70
2022/10/05 02:10:37;;;;;;;3.05;2.25;;;;;;;10.16;85.23;99688.34;1721809;81;21504;-68
2022/10/05 02:13:33;;;;;;;4.90;2.60;;;;;;;10.14;85.26;99696.14;1721823;83;20894;-71
2022/10/05 02:16:11;;;;;;;2.52;2.20;;;;;;;10.10;85.32;99698.25;1721945;83;21006;-71
2022/10/05 02:18:53;;;;;;;2.80;2.30;;;;;;;10.06;85.33;99699.58;1721902;81;20977;-69
2022/10/05 02:21:19;;;;;;;3.10;2.60;;;;;;;10.03;85.38;99704.37;1721808;83;21150;-72
2022/10/05 02:23:46;;;;;;;2.35;2.10;;;;;;;9.99;85.49;99709.17;1721794;81;21013;-69
2022/10/05 02:26:12;;;;;;;2.92;2.50;;;;;;;9.95;85.55;99711.83;1719807;83;21633;-71
2022/10/05 02:29:01;;;;;;;2.87;2.60;;;;;;;9.94;85.50;99707.48;1721875;82;20999;-71
2022/10/05 02:31:49;;;;;;;4.08;2.83;;;;;;;9.91;85.54;99711.30;1710596;83;20946;-69
2022/10/05 02:34:37;;;;;;;4.83;2.72;;;;;;;9.89;85.53;99724.41;1721955;83;21061;-68
2022/10/05 02:37:56;;;;;;;5.72;3.22;;;;;;;9.84;85.52;99728.89;1718683;83;21641;-71
2022/10/05 02:40:50;;;;;;;3.95;3.00;;;;;;;9.80;85.61;99724.87;1720600;83;21076;-68
2022/10/05 02:43:39;;;;;;;13.38;3.77;;;;;;;9.76;85.65;99730.66;1721709;82;20942;-70
2022/10/05 02:46:18;;;;;;;4.67;4.10;;;;;;;9.72;85.76;99727.52;1721967;81;21004;-70
2022/10/05 02:49:20;;;;;;;5.37;4.65;;;;;;;9.68;85.87;99727.48;1708133;83;21166;-72
2022/10/05 02:51:55;;;;;;;6.72;5.33;;;;;;;9.64;85.96;99730.12;1725262;82;20934;-71
2022/10/05 02:55:04;;;;;;;6.58;5.78;;;;;;;9.61;85.98;99729.11;1727354;82;20927;-70
2022/10/05 02:57:36;;;;;;;8.40;6.67;;;;;;;9.57;86.01;99729.07;1718454;82;21464;-70
2022/10/05 03:00:11;;;;;;;8.13;7.25;;;;;;;9.54;86.04;99732.56;1716385;82;20895;-69
2022/10/05 03:03:17;;;;;;;8.53;7.72;;;;;;;9.51;86.13;99730.21;1701716;83;21084;-71
2022/10/05 03:06:00;;;;;;;10.13;8.38;;;;;;;9.50;86.20;99728.53;1711570;82;21421;-69
2022/10/05 03:08:35;;;;;;;9.10;8.15;;;;;;;9.48;86.32;99728.70;1720100;82;21001;-69
2022/10/05 03:11:26;;;;;;;10.45;9.45;;;;;;;9.46;86.39;99730.69;1717884;83;20938;-72
2022/10/05 03:14:17;;;;;;;9.18;8.25;;;;;;;9.44;86.42;99740.61;1704371;82;21001;-70
2022/10/05 03:17:14;;;;;;;12.93;9.55;;;;;;;9.42;86.46;99744.41;1720574;82;21237;-70
2022/10/05 03:20:06;;;;;;;10.20;9.20;;;;;;;9.39;86.50;99738.09;1729068;82;20883;-70
2022/10/05 03:22:56;;;;;;;10.23;9.25;;;;;;;9.36;86.58;99741.89;1721544;82;20934;-69
2022/10/05 03:25:54;;;;;;;12.00;9.15;;;;;;;9.31;86.57;99745.02;1699864;83;20922;-70
2022/10/05 03:28:41;;;;;;;10.45;9.50;;;;;;;9.29;86.57;99739.52;1729307;82;21006;-71
2022/10/05 03:31:27;;;;;;;10.78;9.48;;;;;;;9.24;86.55;99747.96;1720780;82;21047;-70
2022/10/05 03:33:59;;;;;;;11.48;10.28;;;;;;;9.21;86.59;99749.59;1716228;82;21014;-70
2022/10/05 03:36:53;;;;;;;13.22;9.83;;;;;;;9.20;86.63;99753.75;1728057;81;21049;-71
2022/10/05 03:39:25;;;;;;;11.68;10.68;;;;;;;9.18;86.64;99753.05;1728009;81;20997;-71
2022/10/05 03:42:13;;;;;;;11.97;10.30;;;;;;;9.15;86.64;99755.52;1745047;81;21417;-71
2022/10/05 03:45:00;;;;;;;10.75;9.65;;;;;;;9.14;86.71;99761.83;1736474;81;21135;-71
2022/10/05 03:47:47;;;;;;;10.55;9.55;;;;;;;9.12;86.67;99763.81;1733262;81;21057;-70
2022/10/05 03:50:34;;;;;;;10.32;9.30;;;;;;;9.11;86.65;99765.27;1740983;81;20870;-69
2022/10/05 03:53:20;;;;;;;9.45;8.65;;;;;;;9.10;86.63;99760.45;1707949;82;20976;-69
2022/10/05 03:55:56;;;;;;;10.55;8.93;;;;;;;9.07;86.60;99766.06;1698452;84;20943;-70
2022/10/05 03:58:36;;;;;;;11.27;9.10;;;;;;;9.06;86.63;99770.21;1691004;84;21273;-70
2022/10/05 04:01:08;;;;;;;10.82;9.73;;;;;;;9.05;86.64;99772.52;1706242;84;21390;-70
2022/10/05 04:03:48;;;;;;;10.38;9.13;;;;;;;9.05;86.62;99776.49;1708963;82;21093;-68
2022/10/05 04:06:21;;;;;;;10.45;9.25;;;;;;;9.03;86.65;99780.64;1709118;83;21445;-68
2022/10/05 04:09:14;;;;;;;15.08;9.83;;;;;;;9.01;86.67;99782.63;1704870;84;21034;-69
2022/10/05 04:11:47;;;;;;;10.60;9.50;;;;;;;9.00;86.76;99783.59;1708984;83;21815;-69
2022/10/05 04:14:31;;;;;;;9.80;8.80;;;;;;;9.00;86.79;99791.55;1716104;82;20879;-72
2022/10/05 04:17:02;;;;;;;11.05;9.88;;;;;;;9.00;86.84;99798.67;1708929;82;21053;-71
2022/10/05 04:19:57;;;;;;;11.48;9.65;;;;;;;8.98;86.85;99801.98;1703269;84;20991;-69
2022/10/05 04:22:58;;;;;;;9.93;8.93;;;;;;;8.97;86.90;99802.98;1721724;83;20997;-70
2022/10/05 04:25:40;;;;;;;9.68;8.78;;;;;;;8.97;86.94;99806.97;1721748;81;21230;-71
2022/10/05 04:28:48;;;;;;;10.30;9.35;;;;;;;8.96;87.08;99811.92;1720632;81;21033;-68
2022/10/05 04:31:38;;;;;;;11.03;9.45;;;;;;;8.97;87.15;99811.76;1720931;83;21422;-71
2022/10/05 04:34:46;;;;;;;9.83;8.85;;;;;;;9.00;87.23;99815.44;1716588;83;20927;-68
2022/10/05 04:37:36;;;;;;;9.10;8.20;;;;;;;9.03;87.32;99816.95;1743453;81;20883;-68
2022/10/05 04:40:26;;;;;;;10.25;8.03;;;;;;;9.12;87.56;99824.86;1749441;81;21089;-71
2022/10/05 04:43:14;;;;;;;9.28;8.40;;;;;;;9.21;87.68;99815.95;1759456;81;20879;-72
2022/10/05 04:46:02;;;;;;;9.45;8.00;;;;;;;9.29;87.63;99819.17;1745370;81;21061;-70
2022/10/05 04:48:45;;;;;;;15.28;8.55;;;;;;;9.35;87.56;99821.22;1751294;81;20990;-70
2022/10/05 04:51:37;;;;;;;8.95;8.05;;;;;;;9.42;87.49;99824.92;1726955;81;20893;-69
2022/10/05 04:54:38;;;;;;;10.30;8.23;;;;;;;9.49;87.37;99831.27;1757266;81;21220;-69
2022/10/05 04:57:09;;;;;;;8.98;7.45;;;;;;;9.56;87.35;99835.00;1726181;83;20871;-69
2022/10/05 05:00:04;;;;;;;11.85;7.75;;;;;;;9.71;87.48;99837.91;1713798;82;20996;-69
2022/10/05 05:02:52;;;;;;;8.75;7.47;;;;;;;9.87;87.52;99839.34;1726207;83;20962;-70
2022/10/05 05:05:31;;;;;;;8.75;7.85;;;;;;;10.21;87.80;99842.05;1759742;80;20991;-69
2022/10/05 05:08:34;;;;;;;8.03;7.17;;;;;;;10.60;87.76;99847.19;1759305;80;21258;-71
2022/10/05 05:11:15;;;;;;;7.08;6.37;;;;;;;11.01;87.58;99838.30;1753887;80;20930;-68
2022/10/05 05:14:25;;;;;;;11.08;7.05;;;;;;;11.59;87.07;99836.83;1759368;80;20938;-71
2022/10/05 05:17:16;;;;;;;8.40;5.33;;;;;;;12.09;86.07;99827.27;1750515;80;20947;-71
2022/10/05 05:20:14;;;;;;;6.58;4.80;;;;;;;12.70;84.32;99840.32;1721282;82;20844;-72
2022/10/05 05:23:02;;;;;;;7.70;5.90;;;;;;;13.28;82.64;99837.14;1759004;81;21268;-69
2022/10/05 05:25:49;;;;;;;5.17;4.72;;;;;;;13.83;79.93;99820.28;1721798;80;20942;-71
2022/10/05 05:28:48;;;;;;;6.45;4.42;;;;;;;14.23;77.36;99817.14;1753306;80;21582;-70
2022/10/05 05:31:42;;;;;;;7.70;4.28;;;;;;;14.65;75.44;99819.14;1738514;80;21448;-71
2022/10/05 05:34:51;;;;;;;5.20;4.08;;;;;;;15.16;72.25;99814.56;1734176;82;20978;-69
2022/10/05 05:37:53;;;;;;;7.80;4.05;;;;;;;15.59;70.02;99818.58;1750041;80;21193;-68
2022/10/05 05:40:28;;;;;;;4.80;3.65;;;;;;;16.03;67.86;99811.06;1756237;81;20985;-70
2022/10/05 05:43:09;;;;;;;4.80;3.83;;;;;;;16.33;65.25;99804.91;1735253;80;21143;-70
2022/10/05 05:45:42;;;;;;;5.15;4.65;;;;;;;16.46;63.73;99812.52;1746231;81;21072;-71
2022/10/05 05:48:20;;;;;;;6.00;4.53;;;;;;;16.57;62.50;99815.17;1757144;80;20969;-66
2022/10/05 05:51:16;;;;;;;11.50;6.20;;;;;;;16.58;61.44;99826.25;1757766;80;21099;-69
2022/10/05 05:53:47;;;;;;;7.58;5.20;;;;;;;16.62;61.16;99843.60;1740355;81;20935;-69
2022/10/05 05:56:18;;;;;;;6.10;4.80;;;;;;;16.68;60.50;99851.67;1737371;81;21389;-69
2022/10/05 05:58:53;;;;;;;7.42;4.20;;;;;;;16.76;59.76;99861.95;1740127;81;21459;-70
2022/10/05 06:01:37;;;;;;;7.50;3.87;;;;;;;16.89;59.66;99852.59;1745303;81;20935;-68
2022/10/05 06:04:18;;;;;;;7.28;3.55;;;;;;;17.15;59.06;99848.64;1696075;82;21107;-72
2022/10/05 06:06:48;;;;;;;10.23;3.40;;;;;;;17.54;57.99;99851.94;1669866;83;20929;-68
2022/10/05 06:09:23;;;;;;;6.42;4.25;;;;;;;18.08;56.99;99861.95;1740570;81;21464;-69
2022/10/05 06:12:08;;;;;;;9.65;5.10;;;;;;;18.61;55.91;99859.16;1736561;81;21547;-68
2022/10/05 06:14:53;;;;;;;8.83;4.10;;;;;;;19.19;54.36;99843.20;1713448;82;21048;-71
2022/10/05 06:17:34;;;;;;;10.70;4.42;;;;;;;19.62;52.38;99840.14;1743280;81;21157;-69
2022/10/05 06:20:04;;;;;;;9.20;3.98;;;;;;;19.73;51.46;99845.87;1712472;82;20929;-74
2022/10/05 06:22:43;;;;;;;5.03;3.85;;;;;;;19.61;50.66;99833.08;1739937;82;20930;-75
2022/10/05 06:25:16;;;;;;;3.37;3.08;;;;;;;19.34;50.18;99828.91;1715646;82;20948;-75
2022/10/05 06:28:11;;;;;;;5.40;3.47;;;;;;;18.86;50.09;99835.83;1743742;81;20900;-73
2022/10/05 06:31:02;;;;;;;3.40;3.10;;;;;;;18.34;51.26;99840.87;1722294;82;21558;-71
2022/10/05 06:33:51;;;;;;;4.85;3.80;;;;;;;17.93;51.95;99842.52;1738495;81;20895;-71
2022/10/05 06:36:49;;;;;;;5.55;3.10;;;;;;;17.61;52.99;99857.63;1726616;82;20992;-70
2022/10/05 06:39:37;;;;;;;;;;;;;;;17.40;53.92;99856.43;1732718;81;21012;-70
2022/10/05 06:42:15;;;;;;;5.87;3.58;;;;;;;17.16;54.17;99869.09;1740000;81;20562;-67
2022/10/05 06:45:25;;;;;;;6.53;3.50;;;;;;;16.90;54.68;99877.08;1723993;81;21873;-68
2022/10/05 06:48:51;;;;;;;4.60;3.95;;;;;;;16.70;55.63;99877.02;1730648;82;20982;-67
2022/10/05 06:51:55;;;;;;;8.70;3.58;;;;;;;16.50;56.14;99869.34;1685610;84;26394;-68
2022/10/05 06:54:47;;;;;;;7.17;3.70;;;;;;;16.33;56.53;99877.39;1730278;82;20897;-69
2022/10/05 06:57:46;;;;;;;4.47;3.70;;;;;;;16.33;57.42;99874.71;1725011;81;21027;-67
2022/10/05 07:00:20;;;;;;;5.58;3.50;;;;;;;16.47;57.55;99869.74;1741114;81;21171;-69
2022/10/05 07:03:11;;;;;;;4.62;3.65;;;;;;;16.52;57.32;99872.19;1729377;81;22238;-69
2022/10/05 07:06:04;;;;;;;6.62;3.10;;;;;;;16.62;57.52;99869.12;1726958;82;20985;-69
2022/10/05 07:08:55;;;;;;;5.35;3.37;;;;;;;16.72;57.08;99861.52;1740055;82;21609;-68
2022/10/05 07:11:58;;;;;;;4.75;3.30;;;;;;;16.70;56.99;99862.75;1729693;82;21539;-71
2022/10/05 07:15:11;;;;;;;5.17;3.00;;;;;;;16.71;57.18;99862.56;1721301;82;22254;-70
2022/10/05 07:18:20;;;;;;;7.55;3.58;;;;;;;17.02;57.60;99864.22;1731118;81;20942;-66
2022/10/05 07:21:00;;;;;;;4.15;2.85;;;;;;;17.57;56.29;99862.28;1727295;82;20965;-69
2022/10/05 07:23:57;;;;;;;4.92;3.08;;;;;;;17.95;54.71;99874.59;1732896;82;20968;-71
2022/10/05 07:26:37;;;;;;;3.98;3.00;;;;;;;18.12;54.00;99881.22;1738754;81;21055;-67
2022/10/05 07:29:22;;;;;;;3.25;2.95;;;;;;;18.24;53.63;99870.94;1727726;82;21164;-68
2022/10/05 07:32:16;;;;;;;5.35;3.98;;;;;;;18.46;53.50;99873.67;1728904;81;21504;-69
2022/10/05 07:38:25;;;;;;;4.45;3.30;;;;;;;19.05;51.96;99874.83;1745075;82;20904;-71
2022/10/05 07:41:00;;;;;;;7.03;3.40;;;;;;;19.40;50.64;99874.43;1693948;83;21018;-64
2022/10/05 07:43:49;;;;;;;8.65;3.58;;;;;;;19.68;50.24;99875.67;1735379;81;21126;-71
2022/10/05 07:46:42;;;;;;;5.00;3.45;;;;;;;19.97;49.75;99872.84;1735318;81;20914;-71
2022/10/05 07:49:44;;;;;;;8.70;3.60;;;;;;;20.38;48.65;99867.40;1726427;82;20933;-74
2022/10/05 07:52:16;;;;;;;4.28;3.45;;;;;;;20.80;47.89;99865.98;1739498;82;20939;-75
2022/10/05 07:55:07;;;;;;;4.60;3.30;;;;;;;21.28;46.48;99870.55;1733563;82;21397;-74
2022/10/05 07:58:11;;;;;;;4.08;3.30;;;;;;;22.12;44.55;99860.27;1724415;80;21645;-74
2022/10/05 08:01:21;;;;;;;4.22;3.75;;;;;;;22.12;44.55;99860.27;1702756;81;21005;-74
2022/10/05 08:04:14;;;;;;;9.45;3.42;;;;;;;22.41;44.01;99848.16;1721719;81;20989;-76
2022/10/05 08:06:53;;;;;;;7.85;3.33;;;;;;;22.88;43.44;99855.69;1721916;81;20969;-76
2022/10/05 08:10:04;;;;;;;7.72;3.52;;;;;;;23.26;42.51;99854.52;1721855;81;21027;-75
2022/10/05 08:12:37;;;;;;;6.33;3.00;;;;;;;23.61;41.86;99846.22;1721921;81;21819;-74
2022/10/05 08:15:14;;;;;;;5.95;3.65;;;;;;;23.95;40.33;99851.95;1722207;81;20886;-76
2022/10/05 08:18:07;;;;;;;7.20;3.92;;;;;;;24.09;39.45;99848.39;1722180;83;20895;-76
2022/10/05 08:20:54;;;;;;;5.28;2.77;;;;;;;24.20;39.34;99864.59;1698927;81;20966;-75
2022/10/05 08:23:59;;;;;;;5.58;3.75;;;;;;;24.45;38.74;99860.89;1722148;81;20946;-78
2022/10/05 08:26:34;;;;;;;4.22;3.62;;;;;;;24.76;38.11;99865.36;1720993;81;21181;-76
2022/10/05 08:29:21;;;;;;;5.70;3.60;;;;;;;24.95;37.69;99874.32;1722009;81;21484;-75
2022/10/05 08:32:18;;;;;;;4.90;3.20;;;;;;;25.16;36.97;99876.73;1722066;81;20942;-74
2022/10/05 08:34:48;;;;;;;;;;;;;;;25.46;36.84;99881.19;1705909;83;20910;-74
2022/10/05 08:37:23;;;;;;;4.47;2.90;;;;;;;25.92;36.72;99888.39;1721917;81;20085;-73
2022/10/05 08:40:01;;;;;;;5.72;3.37;;;;;;;26.55;35.76;99888.86;1720623;81;21135;-75
2022/10/05 08:43:14;;;;;;;14.95;3.55;;;;;;;27.09;34.73;99890.22;1714338;81;21040;-76
2022/10/05 08:46:13;;;;;;;4.90;3.20;;;;;;;27.18;33.93;99884.53;1721875;81;20938;-74
2022/10/05 08:49:23;;;;;;;3.90;3.17;;;;;;;26.66;34.40;99891.39;1721893;81;20944;-75
2022/10/05 08:52:10;;;;;;;8.58;3.00;;;;;;;27.03;34.12;99891.31;1703234;81;21062;-76
2022/10/05 08:55:01;;;;;;;5.25;2.85;;;;;;;27.54;33.20;99884.91;1720667;81;22603;-72
2022/10/05 08:57:52;;;;;;;10.03;2.75;;;;;;;27.68;32.36;99881.11;1704742;81;21480;-74
2022/10/05 09:00:22;;;;;;;5.87;2.77;;;;;;;27.65;32.56;99874.81;1723588;81;21025;-72
2022/10/05 09:03:03;;;;;;;8.45;3.00;;;;;;;27.41;33.03;99879.98;1721853;83;21057;-77
2022/10/05 09:05:57;;;;;;;6.42;2.77;;;;;;;27.35;33.34;99876.12;1721875;81;20997;-75
2022/10/05 09:08:49;;;;;;;4.20;2.60;;;;;;;27.17;32.94;99874.69;1721816;81;21639;-75
2022/10/05 09:11:41;;;;;;;8.50;3.05;;;;;;;26.84;33.11;99867.77;1721884;81;20899;-73
2022/10/05 09:14:23;;;;;;;10.10;3.67;;;;;;;26.86;33.17;99869.67;1697033;82;21129;-75
2022/10/05 09:16:58;;;;;;;5.17;3.22;;;;;;;27.13;32.91;99865.41;1666424;83;21010;-73
2022/10/05 09:19:50;;;;;;;3.83;2.30;;;;;;;27.14;33.24;99864.30;1722319;81;21116;-76
2022/10/05 09:22:47;;;;;;;6.72;2.70;;;;;;;26.88;32.81;99860.67;1721892;81;21182;-75
2022/10/05 09:25:33;;;;;;;6.33;2.40;;;;;;;26.38;33.39;99863.14;1722060;81;20957;-74
2022/10/05 09:28:24;;;;;;;4.70;2.12;;;;;;;26.22;34.04;99866.86;1721453;81;21500;-73
2022/10/05 09:31:12;;;;;;;3.50;2.08;;;;;;;26.24;34.07;99863.31;1718608;81;21518;-75
2022/10/05 09:34:08;;;;;;;5.45;2.30;;;;;;;26.06;34.00;99868.62;1722153;83;21030;-75
2022/10/05 09:37:27;;;;;;;7.08;3.17;;;;;;;25.83;34.44;99876.34;1722129;81;21429;-77
2022/10/05 09:40:02;;;;;;;4.95;2.47;;;;;;;25.52;34.80;99866.55;1722128;81;20886;-73
2022/10/05 09:42:53;;;;;;;11.63;3.05;;;;;;;25.02;35.39;99871.42;1722241;81;21018;-78
2022/10/05 09:45:32;;;;;;;14.58;2.52;;;;;;;24.74;36.07;99873.75;1721859;81;21069;-76
2022/10/05 09:48:53;;;;;;;4.35;2.47;;;;;;;24.45;36.48;99874.48;1722005;81;20961;-76
2022/10/05 09:51:33;;;;;;;4.90;2.58;;;;;;;24.25;36.59;99870.09;1722085;81;21524;-74
2022/10/05 09:54:35;;;;;;;3.40;2.15;;;;;;;23.90;36.98;99874.44;1718321;81;20895;-73
2022/10/05 09:57:44;;;;;;;4.03;2.20;;;;;;;23.57;37.62;99881.74;1716634;83;20907;-77
2022/10/05 10:00:25;;;;;;;3.72;1.65;;;;;;;23.40;38.11;99883.06;1716493;82;20922;-75
2022/10/05 10:03:17;;;;;;;5.87;2.50;;;;;;;23.25;38.33;99878.67;1716341;83;21002;-75
2022/10/05 10:05:57;;;;;;;4.25;2.27;;;;;;;23.03;38.50;99883.94;1687919;82;20887;-74
2022/10/05 10:09:14;;;;;;;8.20;2.30;;;;;;;22.73;39.24;99881.42;1716322;83;20859;-78
2022/10/05 10:11:55;;;;;;;2.83;1.90;;;;;;;22.54;40.15;99874.49;1716617;82;21066;-76
2022/10/05 10:15:10;;;;;;;9.48;1.98;;;;;;;22.31;40.21;99878.59;1716292;83;20883;-76
2022/10/05 10:18:25;;;;;;;5.28;1.90;;;;;;;22.11;40.11;99879.45;1715781;82;21005;-75
2022/10/05 10:21:09;;;;;;;7.55;1.82;;;;;;;21.95;40.37;99875.55;1721453;81;21225;-73
2022/10/05 10:24:03;;;;;;;4.15;1.52;;;;;;;21.87;40.06;99874.58;1708757;83;20962;-76
2022/10/05 10:27:05;;;;;;;3.98;1.27;;;;;;;21.81;40.12;99867.34;1719417;82;21024;-76
2022/10/05 10:29:40;;;;;;;5.92;2.12;;;;;;;21.81;40.07;99866.52;1719431;82;21017;-75
2022/10/05 10:32:32;;;;;;;4.60;1.70;;;;;;;21.81;40.07;99860.57;1719393;82;21017;-72
2022/10/05 10:35:24;;;;;;;5.22;1.65;;;;;;;21.84;39.85;99860.11;1719494;82;21063;-75
2022/10/05 10:38:22;;;;;;;7.87;1.67;;;;;;;21.87;39.89;99866.45;1719336;82;21021;-72
2022/10/05 10:41:22;;;;;;;2.80;1.65;;;;;;;21.88;39.71;99859.95;1719822;82;20986;-75
2022/10/05 10:44:33;;;;;;;3.22;1.92;;;;;;;21.88;39.71;99859.95;1719048;82;20950;-75
2022/10/05 10:47:36;;;;;;;3.70;2.00;;;;;;;21.83;40.25;99858.45;1719540;82;21589;-73
2022/10/05 10:50:11;;;;;;;5.08;2.05;;;;;;;21.92;40.03;99861.16;1719476;82;21005;-74
2022/10/05 10:53:09;;;;;;;5.67;1.87;;;;;;;21.96;39.68;99845.23;1718734;82;20902;-72
2022/10/05 10:56:20;;;;;;;5.80;1.30;;;;;;;21.96;39.86;99847.42;1719416;82;20934;-74
2022/10/05 10:59:07;;;;;;;5.90;1.85;;;;;;;22.04;39.77;99849.78;1719063;82;21421;-75
2022/10/05 11:01:50;;;;;;;8.28;1.75;;;;;;;22.12;39.68;99856.20;1719364;82;20910;-73
2022/10/05 11:04:53;;;;;;;5.12;1.70;;;;;;;22.18;39.61;99861.21;1719593;82;21146;-72
2022/10/05 11:07:48;;;;;;;4.70;1.72;;;;;;;22.23;39.38;99857.78;1719217;82;20990;-72
2022/10/05 11:10:35;;;;;;;2.67;1.55;;;;;;;22.20;39.37;99860.96;1719298;82;20894;-73
2022/10/05 11:13:51;;;;;;;3.67;1.65;;;;;;;22.10;39.79;99856.98;1704373;82;20989;-73
2022/10/05 11:16:32;;;;;;;7.42;1.90;;;;;;;22.12;39.57;99856.73;1703726;82;21048;-73
2022/10/05 11:19:44;;;;;;;5.60;1.98;;;;;;;21.97;39.75;99859.92;1719431;83;21152;-77
2022/10/05 11:22:51;;;;;;;10.58;2.02;;;;;;;22.00;39.98;99855.91;1719300;82;21042;-76
2022/10/05 11:26:02;;;;;;;2.70;1.70;;;;;;;21.89;39.77;99858.91;1719551;82;28202;-77
2022/10/05 11:29:23;;;;;;;2.87;1.72;;;;;;;21.81;39.58;99864.63;1719344;83;21099;-76
2022/10/05 11:32:11;;;;;;;2.67;1.90;;;;;;;21.64;39.83;99869.06;1719404;82;20981;-77
2022/10/05 11:35:13;;;;;;;3.90;2.05;;;;;;;21.46;40.32;99867.78;1719475;82;21240;-77
2022/10/05 11:38:18;;;;;;;5.78;2.40;;;;;;;21.34;40.58;99867.77;1719318;82;20994;-75
2022/10/05 11:41:07;;;;;;;4.50;2.55;;;;;;;21.27;40.79;99862.98;1719435;82;20891;-76
2022/10/05 11:43:41;;;;;;;5.53;2.10;;;;;;;21.15;41.02;99864.80;1719391;82;21606;-74
2022/10/05 11:46:37;;;;;;;6.90;1.87;;;;;;;21.03;41.31;99864.42;1719499;82;21028;-77
2022/10/05 11:49:41;;;;;;;;;;;;;;;20.94;41.74;99859.85;1722086;82;21065;-72
2022/10/05 11:52:28;;;;;;;8.53;2.10;;;;;;;20.93;42.06;99853.61;1719346;82;20473;-74
2022/10/05 11:55:20;;;;;;;7.42;1.80;;;;;;;20.93;42.06;99853.61;1724175;81;20954;-75
2022/10/05 11:58:00;;;;;;;6.10;1.82;;;;;;;20.82;42.43;99847.64;1709727;83;20966;-76
2022/10/05 12:00:53;;;;;;;4.00;1.70;;;;;;;20.82;42.43;99847.64;1721876;81;21018;-73
2022/10/05 12:03:52;;;;;;;2.72;1.55;;;;;;;20.66;42.86;99848.25;1721849;81;21136;-75
2022/10/05 12:06:57;;;;;;;3.27;1.80;;;;;;;20.69;42.97;99841.57;1721844;81;20938;-74
2022/10/05 12:10:20;;;;;;;4.40;2.12;;;;;;;20.69;42.97;99841.57;1721825;81;21011;-73
2022/10/05 12:13:13;;;;;;;3.40;1.87;;;;;;;20.62;42.93;99847.59;1722142;81;21024;-73
2022/10/05 12:15:52;;;;;;;4.12;1.60;;;;;;;20.62;42.93;99847.59;1721930;81;20946;-76
2022/10/05 12:18:38;;;;;;;3.58;1.67;;;;;;;20.58;42.53;99846.38;1722598;81;21794;-74
2022/10/05 12:21:26;;;;;;;4.58;1.67;;;;;;;20.51;42.12;99839.71;1721984;81;20938;-74
2022/10/05 12:23:58;;;;;;;3.33;1.67;;;;;;;20.42;41.62;99854.56;1721827;81;20950;-73
2022/10/05 12:26:51;;;;;;;2.62;1.27;;;;;;;20.32;41.77;99852.91;1721853;81;20950;-77
2022/10/05 12:29:26;;;;;;;5.78;1.67;;;;;;;20.28;41.92;99855.77;1721845;81;20954;-75
2022/10/05 12:32:18;;;;;;;6.15;1.87;;;;;;;20.25;42.20;99856.21;1721876;81;21475;-74
2022/10/05 12:35:02;;;;;;;4.65;1.80;;;;;;;20.20;42.38;99856.02;1703139;83;21058;-74
2022/10/05 12:37:43;;;;;;;4.03;1.77;;;;;;;20.16;42.79;99849.40;1721846;81;20950;-73
2022/10/05 12:40:29;;;;;;;7.33;1.42;;;;;;;20.19;43.11;99858.41;1721968;81;21009;-73
2022/10/05 12:43:21;;;;;;;;;;;;;;;20.23;43.48;99848.83;1724556;81;20886;-77
2022/10/05 12:46:02;;;;;;;3.12;2.08;;;;;;;20.25;43.55;99860.27;1722001;81;21166;-76
2022/10/05 12:48:55;;;;;;;2.30;1.42;;;;;;;20.28;43.72;99849.02;1722106;81;20970;-76
2022/10/05 12:51:32;;;;;;;4.00;1.70;;;;;;;20.33;43.54;99848.34;1721802;81;20946;-77
2022/10/05 12:54:32;;;;;;;2.98;1.50;;;;;;;20.34;43.23;99852.15;1720072;81;21499;-74
2022/10/05 12:57:25;;;;;;;6.25;2.00;;;;;;;20.31;43.36;99853.42;1702711;84;20940;-74
2022/10/05 13:00:03;;;;;;;4.75;2.00;;;;;;;20.24;43.14;99854.03;1722771;83;21929;-75
2022/10/05 13:02:45;;;;;;;2.65;1.50;;;;;;;20.11;43.16;99860.88;1702716;84;20948;-75
2022/10/05 13:05:36;;;;;;;5.87;2.15;;;;;;;20.00;43.11;99859.42;1722657;83;21064;-74
2022/10/05 13:08:34;;;;;;;4.40;1.70;;;;;;;19.94;43.53;99857.63;1703119;84;20977;-77
2022/10/05 13:11:23;;;;;;;2.58;1.75;;;;;;;19.91;43.41;99845.91;1734706;82;20923;-77
2022/10/05 13:14:29;;;;;;;4.50;1.42;;;;;;;19.78;43.29;99837.93;1702856;84;21161;-72